sensor_id;sensor_type;location;lat;lon;timestamp;P1;durP1;ratioP1;P2;durP2;ratioP2
76574;SDS011;65439;50.948;6.988;2023-06-22T00:02:21;7.13;;;5.20;;
76574;SDS011;65439;50.948;6.988;2023-06-22T00:04:47;6.78;;;5.50;;
76574;SDS011;65439;50.948;6.988;2023-06-22T00:07:12;6.23;;;5.03;;
76574;SDS011;65439;50.948;6.988;2023-06-22T00:09:37;8.27;;;6.00;;
76574;SDS011;65439;50.948;6.988;2023-06-22T00:12:03;7.00;;;5.90;;
76574;SDS011;65439;50.948;6.988;2023-06-22T00:14:28;7.93;;;5.10;;
76574;SDS011;65439;50.948;6.988;2023-06-22T00:16:54;7.17;;;6.23;;
76574;SDS011;65439;50.948;6.988;2023-06-22T00:19:22;6.47;;;5.35;;
76574;SDS011;65439;50.948;6.988;2023-06-22T00:21:48;10.75;;;5.20;;
76574;SDS011;65439;50.948;6.988;2023-06-22T00:24:17;5.63;;;4.93;;
76574;SDS011;65439;50.948;6.988;2023-06-22T00:26:47;9.45;;;5.80;;
76574;SDS011;65439;50.948;6.988;2023-06-22T00:29:13;8.00;;;5.72;;
76574;SDS011;65439;50.948;6.988;2023-06-22T00:31:38;8.93;;;6.57;;
76574;SDS011;65439;50.948;6.988;2023-06-22T00:34:04;5.30;;;4.77;;
76574;SDS011;65439;50.948;6.988;2023-06-22T00:36:31;6.55;;;5.50;;
76574;SDS011;65439;50.948;6.988;2023-06-22T00:38:57;5.55;;;5.03;;
76574;SDS011;65439;50.948;6.988;2023-06-22T00:41:22;6.65;;;5.75;;
76574;SDS011;65439;50.948;6.988;2023-06-22T00:43:47;7.53;;;5.50;;
76574;SDS011;65439;50.948;6.988;2023-06-22T00:46:13;8.73;;;5.40;;
76574;SDS011;65439;50.948;6.988;2023-06-22T00:48:38;6.93;;;6.00;;
76574;SDS011;65439;50.948;6.988;2023-06-22T00:51:05;7.18;;;5.90;;
76574;SDS011;65439;50.948;6.988;2023-06-22T00:53:30;6.63;;;5.60;;
76574;SDS011;65439;50.948;6.988;2023-06-22T00:55:59;7.05;;;4.93;;
76574;SDS011;65439;50.948;6.988;2023-06-22T00:58:25;7.13;;;4.78;;
76574;SDS011;65439;50.948;6.988;2023-06-22T01:00:51;7.37;;;5.37;;
76574;SDS011;65439;50.948;6.988;2023-06-22T01:03:16;7.18;;;5.05;;
76574;SDS011;65439;50.948;6.988;2023-06-22T01:05:42;7.15;;;5.40;;
76574;SDS011;65439;50.948;6.988;2023-06-22T01:11:03;6.63;;;5.30;;
76574;SDS011;65439;50.948;6.988;2023-06-22T01:13:45;7.10;;;5.15;;
76574;SDS011;65439;50.948;6.988;2023-06-22T01:16:29;7.00;;;5.90;;
76574;SDS011;65439;50.948;6.988;2023-06-22T01:18:57;5.90;;;5.28;;
76574;SDS011;65439;50.948;6.988;2023-06-22T01:21:23;8.27;;;4.72;;
76574;SDS011;65439;50.948;6.988;2023-06-22T01:23:51;6.60;;;5.25;;
76574;SDS011;65439;50.948;6.988;2023-06-22T01:28:53;6.72;;;5.47;;
76574;SDS011;65439;50.948;6.988;2023-06-22T01:31:22;6.00;;;5.13;;
76574;SDS011;65439;50.948;6.988;2023-06-22T01:33:59;6.30;;;5.03;;
76574;SDS011;65439;50.948;6.988;2023-06-22T01:36:26;10.00;;;5.20;;
76574;SDS011;65439;50.948;6.988;2023-06-22T01:38:51;6.45;;;5.43;;
76574;SDS011;65439;50.948;6.988;2023-06-22T01:41:17;5.90;;;5.25;;
76574;SDS011;65439;50.948;6.988;2023-06-22T01:43:43;5.05;;;4.40;;
76574;SDS011;65439;50.948;6.988;2023-06-22T01:46:08;8.35;;;5.78;;
76574;SDS011;65439;50.948;6.988;2023-06-22T01:48:35;5.75;;;5.03;;
76574;SDS011;65439;50.948;6.988;2023-06-22T01:51:00;6.25;;;5.00;;
76574;SDS011;65439;50.948;6.988;2023-06-22T01:53:26;6.57;;;5.03;;
76574;SDS011;65439;50.948;6.988;2023-06-22T01:55:51;7.10;;;5.17;;
76574;SDS011;65439;50.948;6.988;2023-06-22T01:58:16;6.30;;;4.90;;
76574;SDS011;65439;50.948;6.988;2023-06-22T02:00:48;6.53;;;5.72;;
76574;SDS011;65439;50.948;6.988;2023-06-22T02:03:18;7.03;;;5.55;;
76574;SDS011;65439;50.948;6.988;2023-06-22T02:05:55;7.15;;;5.40;;
76574;SDS011;65439;50.948;6.988;2023-06-22T02:08:25;6.57;;;5.38;;
76574;SDS011;65439;50.948;6.988;2023-06-22T02:10:53;7.47;;;5.07;;
76574;SDS011;65439;50.948;6.988;2023-06-22T02:13:19;6.50;;;5.80;;
76574;SDS011;65439;50.948;6.988;2023-06-22T02:15:45;8.48;;;5.80;;
76574;SDS011;65439;50.948;6.988;2023-06-22T02:18:11;7.28;;;5.35;;
76574;SDS011;65439;50.948;6.988;2023-06-22T02:20:37;7.85;;;6.03;;
76574;SDS011;65439;50.948;6.988;2023-06-22T02:23:02;5.88;;;4.68;;
76574;SDS011;65439;50.948;6.988;2023-06-22T02:25:28;10.57;;;5.20;;
76574;SDS011;65439;50.948;6.988;2023-06-22T02:27:53;5.93;;;4.70;;
76574;SDS011;65439;50.948;6.988;2023-06-22T02:30:18;6.35;;;5.65;;
76574;SDS011;65439;50.948;6.988;2023-06-22T02:32:44;6.43;;;5.43;;
76574;SDS011;65439;50.948;6.988;2023-06-22T02:35:09;7.72;;;5.47;;
76574;SDS011;65439;50.948;6.988;2023-06-22T02:37:35;7.20;;;5.32;;
76574;SDS011;65439;50.948;6.988;2023-06-22T02:40:04;7.18;;;4.65;;
76574;SDS011;65439;50.948;6.988;2023-06-22T02:42:31;6.93;;;5.18;;
76574;SDS011;65439;50.948;6.988;2023-06-22T02:44:57;7.25;;;5.47;;
76574;SDS011;65439;50.948;6.988;2023-06-22T02:47:22;7.40;;;4.97;;
76574;SDS011;65439;50.948;6.988;2023-06-22T02:49:47;7.03;;;5.13;;
76574;SDS011;65439;50.948;6.988;2023-06-22T02:52:13;7.00;;;5.43;;
76574;SDS011;65439;50.948;6.988;2023-06-22T02:54:38;5.00;;;4.50;;
76574;SDS011;65439;50.948;6.988;2023-06-22T02:57:03;5.73;;;4.50;;
76574;SDS011;65439;50.948;6.988;2023-06-22T02:59:29;5.32;;;4.72;;
76574;SDS011;65439;50.948;6.988;2023-06-22T03:01:54;6.93;;;4.65;;
76574;SDS011;65439;50.948;6.988;2023-06-22T03:04:20;6.90;;;5.43;;
76574;SDS011;65439;50.948;6.988;2023-06-22T03:06:45;5.87;;;4.57;;
76574;SDS011;65439;50.948;6.988;2023-06-22T03:09:15;7.72;;;4.68;;
76574;SDS011;65439;50.948;6.988;2023-06-22T03:11:41;6.88;;;5.30;;
76574;SDS011;65439;50.948;6.988;2023-06-22T03:14:06;8.07;;;5.30;;
76574;SDS011;65439;50.948;6.988;2023-06-22T03:16:31;6.30;;;4.80;;
76574;SDS011;65439;50.948;6.988;2023-06-22T03:18:58;8.95;;;4.95;;
76574;SDS011;65439;50.948;6.988;2023-06-22T03:21:23;6.43;;;5.00;;
76574;SDS011;65439;50.948;6.988;2023-06-22T03:23:48;8.23;;;5.25;;
76574;SDS011;65439;50.948;6.988;2023-06-22T03:26:17;7.20;;;4.93;;
76574;SDS011;65439;50.948;6.988;2023-06-22T03:28:43;6.00;;;4.72;;
76574;SDS011;65439;50.948;6.988;2023-06-22T03:31:08;5.90;;;5.07;;
76574;SDS011;65439;50.948;6.988;2023-06-22T03:33:33;6.47;;;4.90;;
76574;SDS011;65439;50.948;6.988;2023-06-22T03:35:59;6.70;;;5.20;;
76574;SDS011;65439;50.948;6.988;2023-06-22T03:38:24;7.28;;;4.93;;
76574;SDS011;65439;50.948;6.988;2023-06-22T03:40:49;6.83;;;5.73;;
76574;SDS011;65439;50.948;6.988;2023-06-22T03:43:15;8.40;;;5.22;;
76574;SDS011;65439;50.948;6.988;2023-06-22T03:45:40;10.85;;;5.80;;
76574;SDS011;65439;50.948;6.988;2023-06-22T03:48:05;5.47;;;4.90;;
76574;SDS011;65439;50.948;6.988;2023-06-22T03:50:31;8.13;;;5.10;;
76574;SDS011;65439;50.948;6.988;2023-06-22T03:52:56;8.07;;;5.38;;
76574;SDS011;65439;50.948;6.988;2023-06-22T03:55:21;6.97;;;6.28;;
76574;SDS011;65439;50.948;6.988;2023-06-22T03:57:47;7.00;;;5.80;;
76574;SDS011;65439;50.948;6.988;2023-06-22T04:00:13;7.80;;;5.80;;
76574;SDS011;65439;50.948;6.988;2023-06-22T04:02:40;6.78;;;5.30;;
76574;SDS011;65439;50.948;6.988;2023-06-22T04:05:05;6.87;;;5.60;;
76574;SDS011;65439;50.948;6.988;2023-06-22T04:07:31;8.65;;;6.40;;
76574;SDS011;65439;50.948;6.988;2023-06-22T04:09:56;7.13;;;6.17;;
76574;SDS011;65439;50.948;6.988;2023-06-22T04:12:22;9.77;;;7.90;;
76574;SDS011;65439;50.948;6.988;2023-06-22T04:14:47;7.75;;;6.13;;
76574;SDS011;65439;50.948;6.988;2023-06-22T04:17:12;6.43;;;5.60;;
76574;SDS011;65439;50.948;6.988;2023-06-22T04:19:39;7.38;;;6.68;;
76574;SDS011;65439;50.948;6.988;2023-06-22T04:22:04;7.10;;;5.65;;
76574;SDS011;65439;50.948;6.988;2023-06-22T04:24:32;11.48;;;6.28;;
76574;SDS011;65439;50.948;6.988;2023-06-22T04:26:57;8.25;;;6.72;;
76574;SDS011;65439;50.948;6.988;2023-06-22T04:29:25;9.15;;;7.40;;
76574;SDS011;65439;50.948;6.988;2023-06-22T04:31:53;8.30;;;7.45;;
76574;SDS011;65439;50.948;6.988;2023-06-22T04:34:20;8.88;;;7.88;;
76574;SDS011;65439;50.948;6.988;2023-06-22T04:36:46;9.33;;;8.33;;
76574;SDS011;65439;50.948;6.988;2023-06-22T04:39:11;11.93;;;7.73;;
76574;SDS011;65439;50.948;6.988;2023-06-22T04:41:37;8.27;;;7.20;;
76574;SDS011;65439;50.948;6.988;2023-06-22T04:46:38;7.97;;;7.18;;
76574;SDS011;65439;50.948;6.988;2023-06-22T04:51:31;11.32;;;7.60;;
76574;SDS011;65439;50.948;6.988;2023-06-22T04:53:57;9.70;;;8.80;;
76574;SDS011;65439;50.948;6.988;2023-06-22T04:56:25;9.15;;;7.13;;
76574;SDS011;65439;50.948;6.988;2023-06-22T04:58:53;9.32;;;8.23;;
76574;SDS011;65439;50.948;6.988;2023-06-22T05:01:20;8.02;;;7.22;;
76574;SDS011;65439;50.948;6.988;2023-06-22T05:03:47;9.75;;;7.88;;
76574;SDS011;65439;50.948;6.988;2023-06-22T05:06:12;10.48;;;8.73;;
76574;SDS011;65439;50.948;6.988;2023-06-22T05:08:39;9.50;;;8.57;;
76574;SDS011;65439;50.948;6.988;2023-06-22T05:11:04;13.60;;;8.13;;
76574;SDS011;65439;50.948;6.988;2023-06-22T05:13:30;10.10;;;9.05;;
76574;SDS011;65439;50.948;6.988;2023-06-22T05:15:55;10.20;;;8.55;;
76574;SDS011;65439;50.948;6.988;2023-06-22T05:18:25;10.82;;;9.38;;
76574;SDS011;65439;50.948;6.988;2023-06-22T05:20:52;11.02;;;8.65;;
76574;SDS011;65439;50.948;6.988;2023-06-22T05:23:17;11.53;;;9.30;;
76574;SDS011;65439;50.948;6.988;2023-06-22T05:25:43;11.10;;;9.02;;
76574;SDS011;65439;50.948;6.988;2023-06-22T05:28:08;11.40;;;9.38;;
76574;SDS011;65439;50.948;6.988;2023-06-22T05:30:36;11.32;;;10.15;;
76574;SDS011;65439;50.948;6.988;2023-06-22T05:33:01;10.77;;;8.63;;
76574;SDS011;65439;50.948;6.988;2023-06-22T05:35:26;10.43;;;9.33;;
76574;SDS011;65439;50.948;6.988;2023-06-22T05:37:52;9.75;;;8.82;;
76574;SDS011;65439;50.948;6.988;2023-06-22T05:40:17;10.47;;;8.17;;
76574;SDS011;65439;50.948;6.988;2023-06-22T05:42:42;11.00;;;8.60;;
76574;SDS011;65439;50.948;6.988;2023-06-22T05:45:08;10.48;;;8.65;;
76574;SDS011;65439;50.948;6.988;2023-06-22T05:47:34;9.50;;;8.57;;
76574;SDS011;65439;50.948;6.988;2023-06-22T05:49:59;9.57;;;8.57;;
76574;SDS011;65439;50.948;6.988;2023-06-22T05:52:25;11.13;;;8.93;;
76574;SDS011;65439;50.948;6.988;2023-06-22T05:54:50;9.50;;;8.50;;
76574;SDS011;65439;50.948;6.988;2023-06-22T05:57:15;9.63;;;8.67;;
76574;SDS011;65439;50.948;6.988;2023-06-22T05:59:40;12.07;;;9.27;;
76574;SDS011;65439;50.948;6.988;2023-06-22T06:02:06;9.57;;;8.57;;
76574;SDS011;65439;50.948;6.988;2023-06-22T06:04:31;14.17;;;9.63;;
76574;SDS011;65439;50.948;6.988;2023-06-22T06:06:56;10.38;;;9.30;;
76574;SDS011;65439;50.948;6.988;2023-06-22T06:09:22;11.40;;;9.27;;
76574;SDS011;65439;50.948;6.988;2023-06-22T06:11:47;10.32;;;8.63;;
76574;SDS011;65439;50.948;6.988;2023-06-22T06:14:12;9.07;;;8.07;;
76574;SDS011;65439;50.948;6.988;2023-06-22T06:16:38;8.88;;;7.97;;
76574;SDS011;65439;50.948;6.988;2023-06-22T06:19:03;9.10;;;7.83;;
76574;SDS011;65439;50.948;6.988;2023-06-22T06:21:28;9.77;;;8.00;;
76574;SDS011;65439;50.948;6.988;2023-06-22T06:23:54;8.60;;;7.70;;
76574;SDS011;65439;50.948;6.988;2023-06-22T06:26:19;11.73;;;8.23;;
76574;SDS011;65439;50.948;6.988;2023-06-22T06:28:52;10.63;;;7.93;;
76574;SDS011;65439;50.948;6.988;2023-06-22T06:31:18;9.52;;;8.50;;
76574;SDS011;65439;50.948;6.988;2023-06-22T06:33:43;8.03;;;7.23;;
76574;SDS011;65439;50.948;6.988;2023-06-22T06:36:08;9.33;;;8.33;;
76574;SDS011;65439;50.948;6.988;2023-06-22T06:38:34;9.63;;;8.63;;
76574;SDS011;65439;50.948;6.988;2023-06-22T06:40:59;12.10;;;8.57;;
76574;SDS011;65439;50.948;6.988;2023-06-22T06:43:24;8.93;;;7.63;;
76574;SDS011;65439;50.948;6.988;2023-06-22T06:45:50;11.07;;;8.65;;
76574;SDS011;65439;50.948;6.988;2023-06-22T06:48:15;11.40;;;8.23;;
76574;SDS011;65439;50.948;6.988;2023-06-22T06:50:41;10.17;;;9.17;;
76574;SDS011;65439;50.948;6.988;2023-06-22T06:53:08;10.32;;;8.82;;
76574;SDS011;65439;50.948;6.988;2023-06-22T06:55:34;11.90;;;8.38;;
76574;SDS011;65439;50.948;6.988;2023-06-22T06:57:59;9.13;;;7.93;;
76574;SDS011;65439;50.948;6.988;2023-06-22T07:00:25;13.55;;;8.95;;
76574;SDS011;65439;50.948;6.988;2023-06-22T07:02:51;9.43;;;8.40;;
76574;SDS011;65439;50.948;6.988;2023-06-22T07:05:16;9.30;;;7.97;;
76574;SDS011;65439;50.948;6.988;2023-06-22T07:07:42;9.00;;;8.10;;
76574;SDS011;65439;50.948;6.988;2023-06-22T07:10:07;13.70;;;9.27;;
76574;SDS011;65439;50.948;6.988;2023-06-22T07:12:33;10.25;;;8.50;;
76574;SDS011;65439;50.948;6.988;2023-06-22T07:15:02;9.60;;;8.57;;
76574;SDS011;65439;50.948;6.988;2023-06-22T07:17:35;10.65;;;8.65;;
76574;SDS011;65439;50.948;6.988;2023-06-22T07:20:01;10.02;;;8.18;;
76574;SDS011;65439;50.948;6.988;2023-06-22T07:22:26;15.25;;;8.73;;
76574;SDS011;65439;50.948;6.988;2023-06-22T07:24:51;12.67;;;9.33;;
76574;SDS011;65439;50.948;6.988;2023-06-22T07:27:17;9.40;;;8.50;;
76574;SDS011;65439;50.948;6.988;2023-06-22T07:29:44;10.20;;;8.27;;
76574;SDS011;65439;50.948;6.988;2023-06-22T07:32:09;9.47;;;7.60;;
76574;SDS011;65439;50.948;6.988;2023-06-22T07:34:35;9.68;;;8.68;;
76574;SDS011;65439;50.948;6.988;2023-06-22T07:37:00;12.20;;;9.27;;
76574;SDS011;65439;50.948;6.988;2023-06-22T07:39:26;9.93;;;8.70;;
76574;SDS011;65439;50.948;6.988;2023-06-22T07:41:51;11.15;;;8.57;;
76574;SDS011;65439;50.948;6.988;2023-06-22T07:44:17;9.93;;;8.68;;
76574;SDS011;65439;50.948;6.988;2023-06-22T07:46:42;11.30;;;8.97;;
76574;SDS011;65439;50.948;6.988;2023-06-22T07:49:07;10.03;;;8.83;;
76574;SDS011;65439;50.948;6.988;2023-06-22T07:53:58;9.35;;;8.23;;
76574;SDS011;65439;50.948;6.988;2023-06-22T07:58:49;11.63;;;8.07;;
76574;SDS011;65439;50.948;6.988;2023-06-22T08:01:14;8.93;;;7.80;;
76574;SDS011;65439;50.948;6.988;2023-06-22T08:03:39;9.70;;;7.82;;
76574;SDS011;65439;50.948;6.988;2023-06-22T08:06:05;9.65;;;8.60;;
76574;SDS011;65439;50.948;6.988;2023-06-22T08:08:31;10.27;;;8.52;;
76574;SDS011;65439;50.948;6.988;2023-06-22T08:13:21;9.40;;;8.27;;
76574;SDS011;65439;50.948;6.988;2023-06-22T08:15:50;10.13;;;9.00;;
76574;SDS011;65439;50.948;6.988;2023-06-22T08:18:15;8.50;;;7.60;;
76574;SDS011;65439;50.948;6.988;2023-06-22T08:20:43;8.75;;;7.75;;
76574;SDS011;65439;50.948;6.988;2023-06-22T08:23:11;8.30;;;7.33;;
76574;SDS011;65439;50.948;6.988;2023-06-22T08:25:37;9.20;;;6.95;;
76574;SDS011;65439;50.948;6.988;2023-06-22T08:28:03;9.15;;;7.90;;
76574;SDS011;65439;50.948;6.988;2023-06-22T08:30:29;11.15;;;7.90;;
76574;SDS011;65439;50.948;6.988;2023-06-22T08:32:54;9.88;;;7.13;;
76574;SDS011;65439;50.948;6.988;2023-06-22T08:37:45;9.43;;;6.90;;
76574;SDS011;65439;50.948;6.988;2023-06-22T08:40:15;8.35;;;7.10;;
76574;SDS011;65439;50.948;6.988;2023-06-22T08:42:44;9.38;;;7.07;;
76574;SDS011;65439;50.948;6.988;2023-06-22T08:45:10;10.43;;;8.35;;
76574;SDS011;65439;50.948;6.988;2023-06-22T08:47:36;8.82;;;7.93;;
76574;SDS011;65439;50.948;6.988;2023-06-22T08:52:28;8.88;;;7.13;;
76574;SDS011;65439;50.948;6.988;2023-06-22T08:54:53;6.80;;;6.10;;
76574;SDS011;65439;50.948;6.988;2023-06-22T08:59:44;10.43;;;7.37;;
76574;SDS011;65439;50.948;6.988;2023-06-22T09:02:09;9.93;;;8.07;;
76574;SDS011;65439;50.948;6.988;2023-06-22T09:07:02;8.57;;;7.43;;
76574;SDS011;65439;50.948;6.988;2023-06-22T09:09:28;9.75;;;7.05;;
76574;SDS011;65439;50.948;6.988;2023-06-22T09:11:53;10.30;;;7.25;;
76574;SDS011;65439;50.948;6.988;2023-06-22T09:16:44;8.13;;;7.20;;
76574;SDS011;65439;50.948;6.988;2023-06-22T09:21:34;8.93;;;7.33;;
76574;SDS011;65439;50.948;6.988;2023-06-22T09:24:00;7.53;;;6.73;;
76574;SDS011;65439;50.948;6.988;2023-06-22T09:26:25;8.53;;;7.67;;
76574;SDS011;65439;50.948;6.988;2023-06-22T09:28:50;8.07;;;7.07;;
76574;SDS011;65439;50.948;6.988;2023-06-22T09:33:42;9.10;;;7.18;;
76574;SDS011;65439;50.948;6.988;2023-06-22T09:38:38;7.32;;;6.03;;
76574;SDS011;65439;50.948;6.988;2023-06-22T09:41:04;9.23;;;7.15;;
76574;SDS011;65439;50.948;6.988;2023-06-22T09:45:56;13.73;;;8.60;;
76574;SDS011;65439;50.948;6.988;2023-06-22T09:50:46;11.13;;;7.27;;
76574;SDS011;65439;50.948;6.988;2023-06-22T09:55:37;8.53;;;6.43;;
76574;SDS011;65439;50.948;6.988;2023-06-22T10:00:27;7.23;;;6.50;;
76574;SDS011;65439;50.948;6.988;2023-06-22T10:05:18;10.87;;;6.83;;
76574;SDS011;65439;50.948;6.988;2023-06-22T10:10:12;9.63;;;7.17;;
76574;SDS011;65439;50.948;6.988;2023-06-22T10:12:48;12.45;;;7.90;;
76574;SDS011;65439;50.948;6.988;2023-06-22T10:15:20;8.52;;;7.63;;
76574;SDS011;65439;50.948;6.988;2023-06-22T10:17:46;10.32;;;7.28;;
76574;SDS011;65439;50.948;6.988;2023-06-22T10:22:38;11.63;;;7.65;;
76574;SDS011;65439;50.948;6.988;2023-06-22T10:25:07;19.08;;;8.40;;
76574;SDS011;65439;50.948;6.988;2023-06-22T10:29:58;12.48;;;8.38;;
76574;SDS011;65439;50.948;6.988;2023-06-22T10:32:24;11.50;;;8.57;;
76574;SDS011;65439;50.948;6.988;2023-06-22T10:34:49;13.10;;;8.53;;
76574;SDS011;65439;50.948;6.988;2023-06-22T10:39:39;10.30;;;8.50;;
76574;SDS011;65439;50.948;6.988;2023-06-22T10:42:05;11.77;;;8.73;;
76574;SDS011;65439;50.948;6.988;2023-06-22T10:46:56;15.13;;;9.77;;
76574;SDS011;65439;50.948;6.988;2023-06-22T10:49:21;16.25;;;10.00;;
76574;SDS011;65439;50.948;6.988;2023-06-22T10:51:46;16.13;;;10.77;;
76574;SDS011;65439;50.948;6.988;2023-06-22T10:54:12;20.25;;;13.32;;
76574;SDS011;65439;50.948;6.988;2023-06-22T10:56:38;15.68;;;11.38;;
76574;SDS011;65439;50.948;6.988;2023-06-22T10:59:04;15.32;;;10.55;;
76574;SDS011;65439;50.948;6.988;2023-06-22T11:01:31;14.80;;;11.15;;
76574;SDS011;65439;50.948;6.988;2023-06-22T11:03:58;14.48;;;12.02;;
76574;SDS011;65439;50.948;6.988;2023-06-22T11:06:23;17.00;;;12.40;;
76574;SDS011;65439;50.948;6.988;2023-06-22T11:08:48;16.20;;;12.37;;
76574;SDS011;65439;50.948;6.988;2023-06-22T11:11:15;17.63;;;12.33;;
76574;SDS011;65439;50.948;6.988;2023-06-22T11:13:42;17.63;;;12.25;;
76574;SDS011;65439;50.948;6.988;2023-06-22T11:16:08;18.05;;;12.68;;
76574;SDS011;65439;50.948;6.988;2023-06-22T11:18:34;15.02;;;11.80;;
76574;SDS011;65439;50.948;6.988;2023-06-22T11:20:59;17.75;;;13.20;;
76574;SDS011;65439;50.948;6.988;2023-06-22T11:23:24;19.63;;;14.40;;
76574;SDS011;65439;50.948;6.988;2023-06-22T11:25:51;19.02;;;14.77;;
76574;SDS011;65439;50.948;6.988;2023-06-22T11:28:16;18.37;;;14.33;;
76574;SDS011;65439;50.948;6.988;2023-06-22T11:30:41;15.73;;;13.43;;
76574;SDS011;65439;50.948;6.988;2023-06-22T11:33:07;17.17;;;13.50;;
76574;SDS011;65439;50.948;6.988;2023-06-22T11:35:32;15.07;;;13.23;;
76574;SDS011;65439;50.948;6.988;2023-06-22T11:37:57;18.57;;;15.37;;
76574;SDS011;65439;50.948;6.988;2023-06-22T11:40:23;17.38;;;14.27;;
76574;SDS011;65439;50.948;6.988;2023-06-22T11:42:48;15.23;;;13.63;;
76574;SDS011;65439;50.948;6.988;2023-06-22T11:45:13;18.17;;;14.67;;
76574;SDS011;65439;50.948;6.988;2023-06-22T11:47:39;24.10;;;17.75;;
76574;SDS011;65439;50.948;6.988;2023-06-22T11:50:04;19.40;;;16.17;;
76574;SDS011;65439;50.948;6.988;2023-06-22T11:55:00;24.73;;;15.90;;
76574;SDS011;65439;50.948;6.988;2023-06-22T11:57:28;25.73;;;16.77;;
76574;SDS011;65439;50.948;6.988;2023-06-22T11:59:53;16.20;;;14.17;;
76574;SDS011;65439;50.948;6.988;2023-06-22T12:02:19;16.30;;;14.60;;
76574;SDS011;65439;50.948;6.988;2023-06-22T12:04:44;17.63;;;14.70;;
76574;SDS011;65439;50.948;6.988;2023-06-22T12:07:09;16.83;;;14.77;;
76574;SDS011;65439;50.948;6.988;2023-06-22T12:09:34;20.20;;;15.00;;
76574;SDS011;65439;50.948;6.988;2023-06-22T12:12:00;19.03;;;15.83;;
76574;SDS011;65439;50.948;6.988;2023-06-22T12:14:25;17.47;;;14.87;;
76574;SDS011;65439;50.948;6.988;2023-06-22T12:16:50;22.87;;;16.93;;
76574;SDS011;65439;50.948;6.988;2023-06-22T12:19:16;21.53;;;16.43;;
76574;SDS011;65439;50.948;6.988;2023-06-22T12:21:41;22.43;;;16.37;;
76574;SDS011;65439;50.948;6.988;2023-06-22T12:24:10;18.80;;;16.20;;
76574;SDS011;65439;50.948;6.988;2023-06-22T12:26:35;16.37;;;14.57;;
76574;SDS011;65439;50.948;6.988;2023-06-22T12:29:00;14.80;;;13.17;;
76574;SDS011;65439;50.948;6.988;2023-06-22T12:31:26;15.07;;;13.20;;
76574;SDS011;65439;50.948;6.988;2023-06-22T12:33:51;18.60;;;14.67;;
76574;SDS011;65439;50.948;6.988;2023-06-22T12:36:16;16.23;;;14.53;;
76574;SDS011;65439;50.948;6.988;2023-06-22T12:38:42;18.63;;;14.97;;
76574;SDS011;65439;50.948;6.988;2023-06-22T12:41:07;16.93;;;14.50;;
76574;SDS011;65439;50.948;6.988;2023-06-22T12:43:33;15.85;;;14.27;;
76574;SDS011;65439;50.948;6.988;2023-06-22T12:45:58;16.03;;;14.13;;
76574;SDS011;65439;50.948;6.988;2023-06-22T12:48:25;14.98;;;12.88;;
76574;SDS011;65439;50.948;6.988;2023-06-22T12:50:53;15.70;;;12.85;;
76574;SDS011;65439;50.948;6.988;2023-06-22T12:53:18;14.27;;;12.50;;
76574;SDS011;65439;50.948;6.988;2023-06-22T12:55:44;14.23;;;11.90;;
76574;SDS011;65439;50.948;6.988;2023-06-22T13:00:34;17.37;;;12.17;;
76574;SDS011;65439;50.948;6.988;2023-06-22T13:02:59;13.30;;;11.77;;
76574;SDS011;65439;50.948;6.988;2023-06-22T13:05:25;12.33;;;11.00;;
76574;SDS011;65439;50.948;6.988;2023-06-22T13:07:50;12.47;;;11.17;;
76574;SDS011;65439;50.948;6.988;2023-06-22T13:10:15;15.43;;;11.97;;
76574;SDS011;65439;50.948;6.988;2023-06-22T13:15:06;14.40;;;11.70;;
76574;SDS011;65439;50.948;6.988;2023-06-22T13:17:32;15.05;;;11.82;;
76574;SDS011;65439;50.948;6.988;2023-06-22T13:24:53;11.07;;;9.43;;
76574;SDS011;65439;50.948;6.988;2023-06-22T13:29:43;10.00;;;7.90;;
76574;SDS011;65439;50.948;6.988;2023-06-22T13:34:34;9.20;;;8.07;;
76574;SDS011;65439;50.948;6.988;2023-06-22T13:39:24;9.43;;;8.37;;
76574;SDS011;65439;50.948;6.988;2023-06-22T13:44:15;9.20;;;7.73;;
76574;SDS011;65439;50.948;6.988;2023-06-22T13:46:40;9.13;;;6.00;;
76574;SDS011;65439;50.948;6.988;2023-06-22T13:51:30;7.83;;;6.53;;
76574;SDS011;65439;50.948;6.988;2023-06-22T13:53:56;8.80;;;7.20;;
76574;SDS011;65439;50.948;6.988;2023-06-22T13:58:46;5.90;;;5.40;;
76574;SDS011;65439;50.948;6.988;2023-06-22T14:01:12;7.00;;;5.87;;
76574;SDS011;65439;50.948;6.988;2023-06-22T14:06:02;6.20;;;5.40;;
76574;SDS011;65439;50.948;6.988;2023-06-22T14:08:29;6.60;;;5.30;;
76574;SDS011;65439;50.948;6.988;2023-06-22T14:13:19;6.03;;;4.63;;
76574;SDS011;65439;50.948;6.988;2023-06-22T14:15:45;5.47;;;4.57;;
76574;SDS011;65439;50.948;6.988;2023-06-22T14:18:13;5.97;;;5.15;;
76574;SDS011;65439;50.948;6.988;2023-06-22T14:20:39;6.60;;;5.72;;
76574;SDS011;65439;50.948;6.988;2023-06-22T14:25:30;6.10;;;5.50;;
76574;SDS011;65439;50.948;6.988;2023-06-22T14:30:20;7.10;;;6.00;;
76574;SDS011;65439;50.948;6.988;2023-06-22T14:32:45;7.50;;;6.03;;
76574;SDS011;65439;50.948;6.988;2023-06-22T14:37:36;6.73;;;5.37;;
76574;SDS011;65439;50.948;6.988;2023-06-22T14:42:27;7.00;;;6.13;;
76574;SDS011;65439;50.948;6.988;2023-06-22T14:47:17;7.40;;;6.67;;
76574;SDS011;65439;50.948;6.988;2023-06-22T14:49:43;9.48;;;6.57;;
76574;SDS011;65439;50.948;6.988;2023-06-22T14:52:08;7.53;;;6.53;;
76574;SDS011;65439;50.948;6.988;2023-06-22T14:54:34;8.07;;;6.97;;
76574;SDS011;65439;50.948;6.988;2023-06-22T14:56:59;11.20;;;8.17;;
76574;SDS011;65439;50.948;6.988;2023-06-22T14:59:24;10.30;;;7.60;;
76574;SDS011;65439;50.948;6.988;2023-06-22T15:01:49;10.17;;;8.70;;
76574;SDS011;65439;50.948;6.988;2023-06-22T15:04:15;9.07;;;7.53;;
76574;SDS011;65439;50.948;6.988;2023-06-22T15:06:40;12.60;;;8.85;;
76574;SDS011;65439;50.948;6.988;2023-06-22T15:09:05;13.32;;;9.20;;
76574;SDS011;65439;50.948;6.988;2023-06-22T15:11:31;12.00;;;8.50;;
76574;SDS011;65439;50.948;6.988;2023-06-22T15:13:58;10.93;;;9.13;;
76574;SDS011;65439;50.948;6.988;2023-06-22T15:16:25;11.30;;;8.48;;
76574;SDS011;65439;50.948;6.988;2023-06-22T15:18:50;13.32;;;10.35;;
76574;SDS011;65439;50.948;6.988;2023-06-22T15:21:15;13.55;;;9.48;;
76574;SDS011;65439;50.948;6.988;2023-06-22T15:23:41;12.00;;;9.50;;
76574;SDS011;65439;50.948;6.988;2023-06-22T15:26:07;12.40;;;9.93;;
76574;SDS011;65439;50.948;6.988;2023-06-22T15:28:33;12.43;;;8.63;;
76574;SDS011;65439;50.948;6.988;2023-06-22T15:30:59;15.65;;;10.00;;
76574;SDS011;65439;50.948;6.988;2023-06-22T15:33:25;13.48;;;10.02;;
76574;SDS011;65439;50.948;6.988;2023-06-22T15:35:51;10.93;;;9.38;;
76574;SDS011;65439;50.948;6.988;2023-06-22T15:38:17;15.05;;;10.07;;
76574;SDS011;65439;50.948;6.988;2023-06-22T15:40:43;15.35;;;10.93;;
76574;SDS011;65439;50.948;6.988;2023-06-22T15:43:11;13.05;;;10.88;;
76574;SDS011;65439;50.948;6.988;2023-06-22T15:45:40;11.98;;;9.15;;
76574;SDS011;65439;50.948;6.988;2023-06-22T15:48:05;13.50;;;10.73;;
76574;SDS011;65439;50.948;6.988;2023-06-22T15:50:31;15.68;;;11.73;;
76574;SDS011;65439;50.948;6.988;2023-06-22T15:52:56;13.55;;;11.57;;
76574;SDS011;65439;50.948;6.988;2023-06-22T15:55:22;18.23;;;12.45;;
76574;SDS011;65439;50.948;6.988;2023-06-22T15:57:47;21.83;;;13.80;;
76574;SDS011;65439;50.948;6.988;2023-06-22T16:00:14;15.10;;;12.13;;
76574;SDS011;65439;50.948;6.988;2023-06-22T16:02:41;14.85;;;12.00;;
76574;SDS011;65439;50.948;6.988;2023-06-22T16:05:06;15.90;;;12.33;;
76574;SDS011;65439;50.948;6.988;2023-06-22T16:07:31;14.90;;;13.15;;
76574;SDS011;65439;50.948;6.988;2023-06-22T16:09:57;15.90;;;11.73;;
76574;SDS011;65439;50.948;6.988;2023-06-22T16:12:22;19.27;;;13.97;;
76574;SDS011;65439;50.948;6.988;2023-06-22T16:17:14;21.65;;;13.35;;
76574;SDS011;65439;50.948;6.988;2023-06-22T16:19:40;14.30;;;12.80;;